KMHL/MHL METAR and TAF weather

Enter ICAO airport designator
Station Type Date Time Source
KMHL METAR 2019/08/19 12:15 UTC NOAA

KMHL 191215Z AUTO 00000KT 10SM CLR 21/21 A3001 RMK AO2 TSNO


Station Type Date Time Source
KMHL Decoded METAR 2019/08/19 12:15 UTC NOAA

Station name not available
Aug 19, 2019 - 08:15 AM EDT / 2019.08.19 1215 UTC
Wind: Calm:0
Visibility: 10 mile(s):0
Sky conditions: clear
Temperature: 69 F (21 C)
Dew Point: 69 F (21 C)
Relative Humidity: 100%
Pressure (altimeter): 30.01 in. Hg (1016 hPa)
ob: KMHL 191215Z AUTO 00000KT 10SM CLR 21/21 A3001 RMK AO2 TSNO
cycle: 12

Station Type Date Time Source
KMHL TAF UTC NOAA

Error!

Example: see airport list